createdAt,value
2022-08-19T00:00:15.268Z,18.48
2022-08-19T00:02:50.428Z,28.85
2022-08-19T00:05:20.156Z,21.80
2022-08-19T00:07:48.590Z,24.63
2022-08-19T00:10:18.394Z,19.50
2022-08-19T00:12:46.816Z,20.13
2022-08-19T00:15:18.779Z,25.27
2022-08-19T00:17:47.736Z,2.83
2022-08-19T00:20:20.925Z,1.35
2022-08-19T00:22:49.805Z,0.82
2022-08-19T00:25:18.021Z,0.75
2022-08-19T00:27:45.938Z,3.30
2022-08-19T00:30:14.577Z,3.65
2022-08-19T00:32:42.385Z,3.35
2022-08-19T00:35:10.810Z,2.65
2022-08-19T00:37:39.663Z,7.78
2022-08-19T00:40:08.560Z,5.85
2022-08-19T00:42:36.421Z,9.23
2022-08-19T00:45:11.749Z,1.15
2022-08-19T00:47:40.121Z,1.92
2022-08-19T00:50:10.733Z,3.67
2022-08-19T00:52:46.162Z,2.35
2022-08-19T00:55:20.584Z,2.67
2022-08-19T00:58:01.662Z,2.33
2022-08-19T01:00:31.220Z,13.68
2022-08-19T01:02:59.105Z,3.78
2022-08-19T01:05:29.687Z,6.25
2022-08-19T01:07:59.911Z,3.30
2022-08-19T01:10:36.510Z,5.95
2022-08-19T01:13:06.036Z,2.13
2022-08-19T01:15:39.327Z,1.80
2022-08-19T01:18:11.855Z,5.50
2022-08-19T01:20:41.316Z,1.45
2022-08-19T01:23:09.741Z,9.98
2022-08-19T01:25:53.337Z,4.43
2022-08-19T01:28:33.653Z,3.03
2022-08-19T01:31:08.146Z,10.32
2022-08-19T01:33:36.139Z,5.15
2022-08-19T01:36:14.173Z,2.55
2022-08-19T01:38:44.652Z,1.60
2022-08-19T01:41:13.417Z,0.90
2022-08-19T01:44:03.818Z,2.03
2022-08-19T01:46:29.804Z,0.60
2022-08-19T01:48:58.027Z,0.85
2022-08-19T01:51:26.089Z,1.55
2022-08-19T01:53:54.032Z,0.80
2022-08-19T01:56:22.014Z,1.35
2022-08-19T01:59:01.159Z,1.80
2022-08-19T02:01:33.548Z,6.07
2022-08-19T02:04:01.834Z,2.15
2022-08-19T02:06:30.335Z,1.55
2022-08-19T02:08:58.508Z,1.85
2022-08-19T02:11:31.118Z,1.00
2022-08-19T02:14:01.472Z,1.90
2022-08-19T02:16:29.968Z,2.90
2022-08-19T02:18:58.018Z,3.30
2022-08-19T02:21:25.878Z,2.08
2022-08-19T02:23:53.877Z,1.75
2022-08-19T02:26:22.034Z,2.10
2022-08-19T02:28:50.220Z,1.80
2022-08-19T02:31:21.699Z,5.20
2022-08-19T02:33:49.825Z,22.80
2022-08-19T02:36:20.566Z,1.13
2022-08-19T02:38:54.392Z,1.92
2022-08-19T02:41:27.340Z,17.85
2022-08-19T02:44:26.655Z,1.95
2022-08-19T02:46:51.858Z,1.88
2022-08-19T02:49:20.889Z,2.60
2022-08-19T02:51:49.048Z,1.83
2022-08-19T02:54:16.983Z,0.88
2022-08-19T02:56:46.425Z,3.30
2022-08-19T02:59:14.267Z,2.33
2022-08-19T03:01:43.350Z,6.47
2022-08-19T03:04:15.501Z,4.32
2022-08-19T03:06:45.928Z,1.83
2022-08-19T03:09:14.188Z,1.52
2022-08-19T03:11:42.111Z,4.30
2022-08-19T03:14:10.817Z,1.38
2022-08-19T03:16:44.985Z,1.05
2022-08-19T03:19:14.139Z,2.10
2022-08-19T03:21:45.663Z,0.80
2022-08-19T03:24:15.054Z,4.65
2022-08-19T03:26:46.667Z,2.83
2022-08-19T03:29:15.558Z,1.85
2022-08-19T03:32:05.312Z,1.38
2022-08-19T03:34:35.661Z,2.10
2022-08-19T03:37:13.171Z,4.05
2022-08-19T03:39:43.131Z,11.63
2022-08-19T03:42:33.016Z,0.98
2022-08-19T03:44:59.454Z,3.88
2022-08-19T03:47:27.282Z,2.70
2022-08-19T03:49:55.610Z,25.45
2022-08-19T03:52:23.497Z,21.30
2022-08-19T03:54:51.351Z,23.33
2022-08-19T03:57:19.151Z,25.33
2022-08-19T03:59:47.001Z,15.77
2022-08-19T04:02:15.389Z,34.22
2022-08-19T04:04:44.675Z,27.88
2022-08-19T04:07:16.252Z,28.73
2022-08-19T04:09:44.228Z,27.85
2022-08-19T04:12:12.385Z,34.67
2022-08-19T04:14:40.629Z,28.08
2022-08-19T04:17:08.515Z,26.98
2022-08-19T04:19:36.903Z,27.58
2022-08-19T04:22:05.560Z,29.17
2022-08-19T04:24:34.692Z,26.50
2022-08-19T04:27:03.744Z,32.70
2022-08-19T04:29:31.728Z,22.55
2022-08-19T04:32:00.437Z,29.83
2022-08-19T04:35:02.575Z,30.85
2022-08-19T04:37:31.861Z,30.45
2022-08-19T04:40:40.041Z,25.08
2022-08-19T04:43:07.833Z,29.08
2022-08-19T04:45:43.513Z,26.63
2022-08-19T04:48:26.254Z,29.38
2022-08-19T04:50:59.771Z,29.73
2022-08-19T04:53:37.502Z,30.67
2022-08-19T04:56:14.679Z,29.60
2022-08-19T04:58:44.169Z,26.48
2022-08-19T05:01:19.567Z,30.17
2022-08-19T05:03:48.416Z,31.48
2022-08-19T05:06:18.919Z,31.15
2022-08-19T05:08:48.034Z,33.25
2022-08-19T05:11:26.646Z,37.95
2022-08-19T05:13:55.724Z,28.70
2022-08-19T05:16:25.089Z,26.38
2022-08-19T05:19:11.894Z,28.77
2022-08-19T05:22:00.420Z,30.25
2022-08-19T05:24:29.181Z,30.85
2022-08-19T05:26:59.037Z,29.10
2022-08-19T05:29:36.242Z,31.55
2022-08-19T05:32:11.544Z,30.55
2022-08-19T05:34:39.580Z,27.92
2022-08-19T05:37:08.542Z,24.85
2022-08-19T05:39:38.788Z,31.45
2022-08-19T05:42:09.149Z,32.55
2022-08-19T05:44:40.887Z,37.60
2022-08-19T05:47:09.501Z,30.10
2022-08-19T05:49:38.735Z,28.98
2022-08-19T05:52:09.868Z,28.88
2022-08-19T05:54:42.520Z,27.52
2022-08-19T05:57:11.751Z,31.30
2022-08-19T05:59:41.319Z,27.40
2022-08-19T06:02:09.237Z,41.17
2022-08-19T06:04:37.066Z,21.77
2022-08-19T06:07:12.676Z,33.58
2022-08-19T06:09:54.341Z,22.73
2022-08-19T06:12:29.988Z,25.92
2022-08-19T06:15:01.676Z,26.38
2022-08-19T06:17:32.303Z,28.80
2022-08-19T06:20:00.777Z,25.95
2022-08-19T06:22:29.349Z,24.63
2022-08-19T06:24:57.649Z,32.90
2022-08-19T06:27:25.574Z,26.80
2022-08-19T06:29:53.887Z,36.83
2022-08-19T06:32:21.725Z,26.77
2022-08-19T06:34:49.603Z,29.42
2022-08-19T06:37:17.605Z,30.90
2022-08-19T06:39:46.124Z,25.98
2022-08-19T06:42:17.504Z,27.35
2022-08-19T06:44:50.091Z,27.35
2022-08-19T06:47:23.860Z,32.47
2022-08-19T06:50:04.059Z,37.72
2022-08-19T06:52:36.521Z,31.98
2022-08-19T06:55:06.268Z,26.95
2022-08-19T06:57:35.496Z,30.20
2022-08-19T07:00:07.147Z,26.70
2022-08-19T07:02:38.464Z,31.13
2022-08-19T07:05:06.913Z,38.83
2022-08-19T07:07:35.661Z,26.85
2022-08-19T07:10:06.194Z,30.83
2022-08-19T07:12:38.044Z,28.88
2022-08-19T07:15:09.603Z,26.60
2022-08-19T07:17:39.672Z,28.77
2022-08-19T07:20:09.682Z,27.00
2022-08-19T07:22:39.182Z,25.77
2022-08-19T07:25:08.915Z,31.90
2022-08-19T07:27:36.784Z,15.38
2022-08-19T07:30:06.067Z,21.95
2022-08-19T07:32:34.090Z,27.25
2022-08-19T07:35:04.279Z,26.27
2022-08-19T07:37:33.526Z,22.85
2022-08-19T07:40:02.600Z,22.27
2022-08-19T07:42:32.175Z,26.10
2022-08-19T07:45:00.046Z,27.70
2022-08-19T07:47:48.255Z,24.88
2022-08-19T07:50:17.386Z,24.63
2022-08-19T07:52:48.643Z,16.92
2022-08-19T07:55:42.234Z,24.05
2022-08-19T07:58:08.551Z,19.17
2022-08-19T08:00:36.835Z,24.60
2022-08-19T08:03:04.950Z,18.13
2022-08-19T08:05:51.246Z,23.35
2022-08-19T08:08:37.398Z,19.83
2022-08-19T08:11:15.508Z,19.60
2022-08-19T08:13:44.218Z,20.83
2022-08-19T08:16:14.475Z,16.95
2022-08-19T08:18:50.341Z,12.48
2022-08-19T08:21:18.759Z,15.10
2022-08-19T08:23:46.610Z,13.57
2022-08-19T08:26:16.078Z,14.00
2022-08-19T08:28:48.051Z,23.30
2022-08-19T08:31:19.561Z,16.77
2022-08-19T08:33:49.543Z,21.10
2022-08-19T08:36:18.129Z,18.13
2022-08-19T08:38:47.022Z,17.65
2022-08-19T08:41:33.755Z,22.75
2022-08-19T08:44:05.303Z,24.92
2022-08-19T08:46:46.460Z,20.15
2022-08-19T08:49:32.259Z,21.23
2022-08-19T08:52:03.506Z,22.15
2022-08-19T08:54:49.146Z,24.48
2022-08-19T08:57:42.462Z,24.48
2022-08-19T09:00:22.279Z,17.50
2022-08-19T09:02:51.000Z,19.20
2022-08-19T09:05:26.146Z,21.98
2022-08-19T09:08:12.021Z,22.42
2022-08-19T09:10:44.349Z,16.20
2022-08-19T09:13:24.727Z,26.77
2022-08-19T09:16:08.290Z,23.20
2022-08-19T09:18:45.114Z,16.80
2022-08-19T09:21:14.118Z,15.23
2022-08-19T09:23:43.572Z,17.02
2022-08-19T09:26:16.351Z,10.48
2022-08-19T09:28:48.684Z,12.95
2022-08-19T09:31:19.699Z,9.65
2022-08-19T09:33:49.159Z,11.82
2022-08-19T09:36:34.371Z,8.32
2022-08-19T09:39:05.037Z,9.47
2022-08-19T09:41:47.658Z,7.67
2022-08-19T09:44:17.191Z,6.25
2022-08-19T09:46:48.229Z,8.23
2022-08-19T09:49:20.813Z,13.98
2022-08-19T09:51:54.822Z,9.68
2022-08-19T09:54:25.333Z,6.82
2022-08-19T09:56:58.842Z,6.57
2022-08-19T09:59:27.354Z,11.68
2022-08-19T10:01:55.510Z,5.95
2022-08-19T10:04:50.593Z,5.68
2022-08-19T10:07:19.429Z,6.32
2022-08-19T10:09:48.072Z,5.72
2022-08-19T10:12:17.814Z,7.80
2022-08-19T10:17:19.165Z,6.70
2022-08-19T10:19:55.793Z,6.93
2022-08-19T10:22:25.425Z,5.63
2022-08-19T10:24:54.175Z,7.45
2022-08-19T10:27:22.355Z,6.18
2022-08-19T10:29:50.382Z,4.03
2022-08-19T10:32:18.178Z,5.15
2022-08-19T10:34:48.186Z,6.57
2022-08-19T10:37:23.940Z,6.20
2022-08-19T10:39:57.069Z,9.15
2022-08-19T10:42:25.047Z,7.78
2022-08-19T10:44:52.875Z,5.57
2022-08-19T10:47:24.689Z,6.82
2022-08-19T10:50:13.850Z,6.68
2022-08-19T10:52:48.907Z,6.03
2022-08-19T10:55:53.114Z,6.80
2022-08-19T10:58:26.721Z,5.10
2022-08-19T11:05:26.897Z,8.20
2022-08-19T11:07:54.900Z,5.22
2022-08-19T11:10:23.959Z,5.05
2022-08-19T11:12:55.275Z,4.32
2022-08-19T11:15:23.133Z,6.07
2022-08-19T11:17:53.288Z,4.22
2022-08-19T11:20:21.273Z,5.53
2022-08-19T11:22:49.406Z,4.47
2022-08-19T11:25:17.296Z,6.10
2022-08-19T11:27:45.694Z,5.38
2022-08-19T11:30:14.563Z,5.78
2022-08-19T11:32:48.535Z,6.25
2022-08-19T11:35:17.795Z,5.13
2022-08-19T11:37:45.638Z,6.45
2022-08-19T11:40:13.632Z,5.28
2022-08-19T11:42:56.611Z,6.32
2022-08-19T11:45:26.402Z,7.03
2022-08-19T11:47:54.770Z,6.57
2022-08-19T11:50:24.590Z,6.68
2022-08-19T11:52:55.989Z,5.28
2022-08-19T11:55:24.637Z,6.80
2022-08-19T11:57:52.542Z,5.20
2022-08-19T12:00:20.586Z,5.65
2022-08-19T12:02:48.412Z,6.25
2022-08-19T12:05:16.308Z,5.50
2022-08-19T12:07:44.808Z,7.22
2022-08-19T12:10:12.993Z,5.60
2022-08-19T12:12:43.631Z,6.00
2022-08-19T12:15:12.034Z,5.07
2022-08-19T12:17:40.544Z,7.05
2022-08-19T12:20:11.507Z,4.57
2022-08-19T12:22:40.323Z,5.32
2022-08-19T12:25:10.436Z,7.75
2022-08-19T12:27:41.674Z,4.97
2022-08-19T12:30:14.276Z,6.85
2022-08-19T12:32:42.351Z,5.57
2022-08-19T12:35:12.479Z,6.72
2022-08-19T12:37:45.462Z,4.82
2022-08-19T12:40:26.414Z,7.68
2022-08-19T12:42:55.862Z,8.38
2022-08-19T12:45:23.772Z,4.57
2022-08-19T12:47:54.921Z,6.63
2022-08-19T12:52:52.366Z,6.75
2022-08-19T12:55:39.327Z,5.53
2022-08-19T12:58:08.444Z,7.20
2022-08-19T13:00:36.327Z,7.50
2022-08-19T13:03:04.297Z,5.93
2022-08-19T13:05:34.463Z,5.85
2022-08-19T13:08:02.635Z,5.07
2022-08-19T13:10:37.881Z,8.50
2022-08-19T13:13:08.230Z,11.18
2022-08-19T13:15:38.581Z,10.07
2022-08-19T13:18:07.110Z,8.13
2022-08-19T13:20:36.667Z,6.32
2022-08-19T13:23:05.202Z,6.78
2022-08-19T13:25:33.201Z,6.47
2022-08-19T13:28:01.316Z,5.82
2022-08-19T13:30:47.553Z,9.68
2022-08-19T13:33:16.475Z,5.43
2022-08-19T13:35:58.965Z,6.03
2022-08-19T13:38:27.409Z,7.75
2022-08-19T13:40:56.275Z,8.40
2022-08-19T13:43:27.308Z,9.43
2022-08-19T13:45:57.574Z,8.82
2022-08-19T13:48:27.841Z,7.63
2022-08-19T13:50:56.192Z,8.38
2022-08-19T13:53:24.611Z,6.50
2022-08-19T13:55:54.521Z,8.80
2022-08-19T13:58:23.545Z,8.57
2022-08-19T14:00:51.567Z,6.72
2022-08-19T14:03:19.449Z,8.88
2022-08-19T14:05:47.747Z,5.63
2022-08-19T14:08:15.630Z,4.53
2022-08-19T14:10:45.772Z,4.70
2022-08-19T14:13:19.602Z,4.63
2022-08-19T14:15:48.419Z,4.30
2022-08-19T14:18:18.362Z,4.85
2022-08-19T14:20:46.599Z,3.33
2022-08-19T14:23:14.794Z,4.75
2022-08-19T14:25:43.447Z,4.43
2022-08-19T14:28:11.422Z,5.80
2022-08-19T14:30:39.330Z,9.18
2022-08-19T14:33:08.214Z,4.30
2022-08-19T14:35:36.308Z,4.82
2022-08-19T14:38:15.403Z,4.85
2022-08-19T14:40:43.734Z,4.95
2022-08-19T14:43:11.807Z,9.27
2022-08-19T14:45:41.199Z,5.95
2022-08-19T14:48:12.517Z,7.53
2022-08-19T14:50:47.949Z,7.22
2022-08-19T14:53:17.826Z,5.13
2022-08-19T14:55:46.996Z,6.93
2022-08-19T14:58:29.334Z,7.15
2022-08-19T15:01:00.460Z,7.25
2022-08-19T15:03:29.431Z,6.80
2022-08-19T15:05:58.627Z,6.03
2022-08-19T15:08:28.177Z,5.47
2022-08-19T15:10:57.436Z,5.78
2022-08-19T15:13:27.618Z,6.20
2022-08-19T15:15:55.521Z,5.35
2022-08-19T15:18:24.006Z,6.40
2022-08-19T15:20:52.100Z,5.00
2022-08-19T15:23:20.675Z,6.03
2022-08-19T15:25:49.562Z,5.45
2022-08-19T15:28:17.458Z,6.07
2022-08-19T15:30:45.399Z,5.57
2022-08-19T15:33:15.300Z,6.22
2022-08-19T15:35:44.315Z,7.72
2022-08-19T15:38:13.955Z,5.63
2022-08-19T15:40:42.943Z,5.18
2022-08-19T15:43:11.579Z,5.53
2022-08-19T15:45:40.300Z,7.15
2022-08-19T15:48:08.532Z,8.57
2022-08-19T15:50:36.600Z,7.63
2022-08-19T15:53:09.306Z,7.18
2022-08-19T15:58:31.696Z,7.20
2022-08-19T16:01:21.205Z,9.43
2022-08-19T16:04:14.199Z,7.63
2022-08-19T16:06:48.916Z,7.38
2022-08-19T16:09:22.103Z,6.60
2022-08-19T16:11:56.915Z,5.60
2022-08-19T16:14:25.734Z,9.57
2022-08-19T16:16:56.713Z,7.90
2022-08-19T16:19:25.044Z,7.38
2022-08-19T16:21:55.450Z,8.27
2022-08-19T16:24:27.432Z,12.25
2022-08-19T16:26:56.791Z,8.77
2022-08-19T16:29:34.834Z,6.93
2022-08-19T16:32:10.446Z,7.25
2022-08-19T16:34:40.462Z,9.10
2022-08-19T16:37:09.662Z,9.65
2022-08-19T16:39:38.120Z,6.65
2022-08-19T16:42:08.470Z,9.52
2022-08-19T16:44:39.426Z,7.85
2022-08-19T16:47:07.328Z,6.00
2022-08-19T16:49:53.492Z,6.93
2022-08-19T16:52:26.306Z,7.30
2022-08-19T16:54:54.666Z,6.18
2022-08-19T16:57:23.899Z,6.53
2022-08-19T16:59:52.432Z,6.00
2022-08-19T17:02:23.550Z,7.75
2022-08-19T17:04:59.037Z,7.70
2022-08-19T17:07:32.176Z,7.35
2022-08-19T17:10:04.038Z,6.03
2022-08-19T17:12:33.830Z,9.25
2022-08-19T17:15:09.797Z,7.30
2022-08-19T17:17:37.579Z,6.85
2022-08-19T17:20:07.504Z,6.70
2022-08-19T17:22:37.159Z,8.38
2022-08-19T17:25:05.283Z,7.25
2022-08-19T17:27:32.999Z,7.85
2022-08-19T17:30:05.222Z,8.68
2022-08-19T17:33:23.803Z,9.35
2022-08-19T17:35:51.619Z,8.50
2022-08-19T17:38:23.261Z,6.63
2022-08-19T17:40:51.093Z,8.57
2022-08-19T17:43:32.601Z,10.95
2022-08-19T17:46:04.001Z,8.77
2022-08-19T17:48:38.773Z,7.45
2022-08-19T17:51:32.741Z,8.25
2022-08-19T17:54:01.270Z,8.43
2022-08-19T17:56:29.256Z,7.15
2022-08-19T17:59:00.513Z,8.55
2022-08-19T18:01:39.602Z,8.02
2022-08-19T18:04:18.783Z,12.18
2022-08-19T18:06:53.356Z,11.55
2022-08-19T18:09:26.737Z,8.50
2022-08-19T18:11:57.206Z,8.90
2022-08-19T18:14:33.709Z,9.32
2022-08-19T18:17:18.062Z,10.18
2022-08-19T18:19:47.664Z,11.48
2022-08-19T18:22:36.471Z,9.75
2022-08-19T18:25:15.159Z,8.07
2022-08-19T18:27:43.433Z,12.18
2022-08-19T18:30:11.895Z,9.65
2022-08-19T18:32:42.350Z,9.55
2022-08-19T18:35:14.768Z,9.32
2022-08-19T18:37:44.471Z,10.32
2022-08-19T18:40:34.224Z,11.23
2022-08-19T18:43:21.827Z,8.75
2022-08-19T18:46:09.116Z,9.00
2022-08-19T18:48:56.672Z,11.38
2022-08-19T18:51:28.524Z,8.88
2022-08-19T18:53:58.860Z,5.85
2022-08-19T18:56:29.340Z,7.97
2022-08-19T18:58:58.062Z,9.20
2022-08-19T19:01:31.012Z,11.32
2022-08-19T19:06:40.408Z,13.70
2022-08-19T19:09:14.997Z,14.38
2022-08-19T19:11:45.530Z,20.25
2022-08-19T19:14:32.699Z,15.18
2022-08-19T19:17:07.346Z,13.15
2022-08-19T19:19:35.516Z,12.32
2022-08-19T19:22:04.829Z,8.77
2022-08-19T19:24:33.734Z,8.82
2022-08-19T19:27:10.198Z,9.10
2022-08-19T19:29:38.738Z,11.25
2022-08-19T19:32:09.304Z,11.23
2022-08-19T19:34:40.674Z,10.15
2022-08-19T19:37:08.703Z,12.52
2022-08-19T19:39:46.985Z,10.85
2022-08-19T19:42:20.576Z,10.73
2022-08-19T19:44:51.630Z,9.65
2022-08-19T19:47:19.862Z,7.68
2022-08-19T19:50:13.776Z,11.35
2022-08-19T19:52:40.688Z,9.65
2022-08-19T19:55:09.928Z,8.10
2022-08-19T19:57:39.687Z,9.50
2022-08-19T20:00:13.079Z,10.88
2022-08-19T20:02:46.669Z,7.55
2022-08-19T20:05:21.200Z,6.97
2022-08-19T20:08:09.569Z,8.35
2022-08-19T20:10:37.707Z,9.88
2022-08-19T20:13:06.180Z,10.27
2022-08-19T20:15:36.145Z,7.45
2022-08-19T20:20:35.475Z,7.32
2022-08-19T20:23:03.371Z,5.70
2022-08-19T20:25:31.625Z,10.52
2022-08-19T20:28:01.245Z,6.38
2022-08-19T20:30:31.431Z,9.02
2022-08-19T20:33:04.579Z,5.60
2022-08-19T20:35:33.299Z,6.60
2022-08-19T20:38:08.790Z,8.55
2022-08-19T20:40:37.876Z,7.72
2022-08-19T20:43:10.750Z,6.65
2022-08-19T20:45:39.218Z,8.07
2022-08-19T20:48:09.094Z,7.30
2022-08-19T20:50:37.649Z,10.57
2022-08-19T20:53:15.044Z,7.57
2022-08-19T20:55:45.189Z,11.65
2022-08-19T20:58:13.554Z,9.13
2022-08-19T21:00:44.808Z,9.65
2022-08-19T21:03:16.851Z,8.02
2022-08-19T21:05:46.508Z,7.00
2022-08-19T21:08:17.459Z,6.35
2022-08-19T21:10:47.008Z,6.68
2022-08-19T21:13:15.180Z,8.95
2022-08-19T21:15:44.117Z,7.95
2022-08-19T21:18:13.712Z,8.68
2022-08-19T21:20:42.761Z,7.85
2022-08-19T21:23:16.158Z,12.20
2022-08-19T21:25:54.018Z,4.68
2022-08-19T21:28:34.225Z,7.93
2022-08-19T21:31:06.601Z,8.30
2022-08-19T21:33:34.752Z,10.20
2022-08-19T21:36:03.241Z,10.93
2022-08-19T21:38:31.958Z,8.68
2022-08-19T21:41:01.012Z,7.88
2022-08-19T21:43:35.503Z,7.70
2022-08-19T21:46:04.068Z,8.60
2022-08-19T21:48:32.010Z,7.47
2022-08-19T21:50:59.943Z,7.32
2022-08-19T21:53:31.467Z,8.25
2022-08-19T21:56:03.850Z,7.15
2022-08-19T21:58:36.491Z,8.93
2022-08-19T22:01:07.773Z,4.90
2022-08-19T22:03:38.394Z,6.93
2022-08-19T22:06:25.972Z,9.15
2022-08-19T22:08:55.410Z,8.40
2022-08-19T22:11:24.607Z,7.72
2022-08-19T22:13:53.901Z,9.63
2022-08-19T22:16:23.480Z,10.23
2022-08-19T22:18:51.795Z,7.68
2022-08-19T22:21:39.967Z,7.78
2022-08-19T22:24:09.827Z,7.75
2022-08-19T22:26:37.648Z,10.23
2022-08-19T22:29:05.903Z,9.43
2022-08-19T22:31:39.273Z,7.78
2022-08-19T22:34:07.974Z,7.60
2022-08-19T22:36:36.018Z,10.25
2022-08-19T22:39:04.953Z,8.55
2022-08-19T22:41:33.745Z,10.10
2022-08-19T22:44:02.560Z,9.85
2022-08-19T22:46:33.765Z,10.55
2022-08-19T22:49:01.807Z,11.13
2022-08-19T22:51:48.608Z,9.95
2022-08-19T22:54:16.708Z,9.82
2022-08-19T22:56:45.128Z,8.48
2022-08-19T22:59:12.960Z,10.15
2022-08-19T23:01:41.816Z,9.20
2022-08-19T23:04:10.047Z,9.32
2022-08-19T23:06:41.449Z,8.90
2022-08-19T23:09:10.513Z,12.43
2022-08-19T23:11:41.633Z,9.88
2022-08-19T23:14:12.585Z,8.55
2022-08-19T23:16:42.123Z,6.97
2022-08-19T23:19:10.775Z,10.88
2022-08-19T23:21:42.330Z,10.32
2022-08-19T23:24:11.503Z,11.35
2022-08-19T23:27:00.205Z,11.93
2022-08-19T23:29:47.214Z,13.27
2022-08-19T23:32:18.726Z,12.32
2022-08-19T23:34:47.308Z,10.48
2022-08-19T23:37:15.492Z,15.45
2022-08-19T23:39:44.629Z,10.60
2022-08-19T23:42:13.721Z,9.23
2022-08-19T23:44:52.052Z,9.65
2022-08-19T23:47:21.631Z,9.55
2022-08-19T23:49:50.647Z,9.48
2022-08-19T23:52:19.134Z,11.25
2022-08-19T23:54:46.945Z,9.77
2022-08-19T23:57:15.163Z,10.15
2022-08-19T23:59:45.702Z,8.85
